KJQFKGYH

Guest
Details From KJQF - Concord Rgnl
To KGYH - DONALDSON CENTER
Flight Number -
Tags generated
Created
Modified
Stats Distance 90 nm / 167 km
Max Altitude 1,900 ft / 579 m
Waypoints 3
Social Downloads 0
Likes 0
Share VATSIM

Download

Looking for another format? Having issues loading an existing format? Contact us
Advertisement - Login to hide

Notes

Basic altitude profile: - Ascent Rate: 2500ft/min - Ascent Speed: 250kts - Cruise Altitude: 10000ft - Cruise Speed: 420kts - Descent Rate: 1500ft/min - Descent Speed: 250kts Options: - Use NATs: no - Use PACOTS: no - Use low airways: yes - Use high airways: no

Route

KJQF DUNKE KGYH

ID Type Via Altitude Latitude Longitude Leg Dist Tot Dist Heading (true) Name
O KJQF APT - 0 ft / 0 m 35.38777˚ -80.70913˚ - 0 nm - Concord Rgnl
DUNKE FIX - 1,900 ft / 579 m 34.83173˚ -82.21125˚ 81 nm 81 nm 246° / 245° -
O KGYH APT - 0 ft / 0 m 34.75832˚ -82.37641˚ 9 nm 90 nm 242° / 242° DONALDSON CENTER

Altitude Profile

Advertisement - Login to hide

KJQF

Details ICAO KJQF
Name Concord Rgnl
Region United States
Timezone America/New_York (UTC-5.0)
Stats Elevation 690 ft / 210 m (AMSL)
Location 35.387774° -80.709133°
Runways 1
Magnetic Variation 7.873° W

METAR

KJQF 171550Z 00000KT 10SM SCT100 06/M01 A3031

Decode

TAF

Not found

Departure Runways

ID Width Length Bearing (true) Bearing (mag) Surface Threshold Offset Overrun Length
02 98 ft / 30 m 7,419 ft / 2,261 m 10.42° 18.29° Asphalt 0 ft / 0 m 0 ft / 0 m
20 98 ft / 30 m 7,419 ft / 2,261 m 190.42° 198.29° Asphalt 650 ft / 198 m 0 ft / 0 m

KGYH

Details ICAO KGYH
Name DONALDSON CENTER
Region United States
Timezone America/New_York (UTC-5.0)
Stats Elevation 955 ft / 291 m (AMSL)
Location 34.758323° -82.376411°
Runways 1
Magnetic Variation 6.661° W

METAR

KGYH 171547Z 23003KT 10SM BKN095 09/M01 A3027

Decode

TAF

Not found

Destination Runways

ID Width Length Bearing (true) Bearing (mag) Surface Threshold Offset Overrun Length
05 150 ft / 46 m 8,007 ft / 2,441 m 39.85° 46.51° Concrete 0 ft / 0 m 0 ft / 0 m
23 150 ft / 46 m 8,007 ft / 2,441 m 219.86° 226.52° Concrete 0 ft / 0 m 0 ft / 0 m

Approach Navaids

Runway Type Ident Frequency Range Bearing (true) Bearing (mag) Slope Elevation
05 Localiser IGYH 108.30 MHz 18 nm / 33 km 39.86° 46.52° - 955 ft / 291 m (AMSL)
05 Glidescope IGYH 108.30 MHz 10 nm / 19 km 39.85° 46.51° 3.00° 954 ft / 291 m (AMSL)